Time;durP1;ratioP1;P1;durP2;ratioP2;P2;SDS_P1;SDS_P2;PMS_P1;PMS_P2;Temp;Humidity;BMP_temperature;BMP_pressure;BME280_temperature;BME280_humidity;BME280_pressure;Samples;Min_cycle;Max_cycle;Signal;HPM_P1;HPM_P2
2022/10/09 00:00:37;;;;;;;3.90;1.50;;;10.40;99.90;;;;;;5097111;28;20472;-51
2022/10/09 00:03:04;;;;;;;7.10;1.30;;;10.40;99.90;;;;;;5097190;28;20452;-55
2022/10/09 00:05:31;;;;;;;4.40;1.97;;;10.40;99.90;;;;;;5102082;28;20849;-53
2022/10/09 00:07:58;;;;;;;4.30;1.60;;;10.40;99.90;;;;;;5117764;28;20452;-55
2022/10/09 00:10:25;;;;;;;2.63;1.50;;;10.30;99.90;;;;;;5117582;28;20456;-52
2022/10/09 00:12:52;;;;;;;1.97;1.20;;;10.40;99.90;;;;;;5117481;28;20484;-53
2022/10/09 00:15:19;;;;;;;3.63;1.40;;;10.40;99.90;;;;;;5117666;28;20912;-51
2022/10/09 00:17:47;;;;;;;4.97;1.73;;;10.30;99.90;;;;;;5117669;28;20448;-52
2022/10/09 00:20:14;;;;;;;3.80;1.37;;;10.30;99.90;;;;;;5112445;28;20496;-54
2022/10/09 00:22:42;;;;;;;1.23;1.00;;;10.30;99.90;;;;;;5097124;28;20735;-52
2022/10/09 00:25:09;;;;;;;3.63;1.20;;;10.30;99.90;;;;;;5097004;28;20540;-52
2022/10/09 00:27:36;;;;;;;4.00;1.23;;;10.30;99.90;;;;;;5096855;28;20488;-47
2022/10/09 00:30:03;;;;;;;6.40;1.67;;;10.30;99.90;;;;;;5102346;28;20425;-44
2022/10/09 00:32:31;;;;;;;2.10;1.20;;;10.20;99.90;;;;;;5116815;28;20480;-47
2022/10/09 00:35:02;;;;;;;4.13;1.57;;;10.20;99.90;;;;;;5106865;28;20453;-51
2022/10/09 00:37:29;;;;;;;4.63;1.93;;;10.20;99.90;;;;;;5097830;28;20458;-52
2022/10/09 00:39:55;;;;;;;2.00;1.30;;;10.00;99.90;;;;;;5097359;28;20484;-53
2022/10/09 00:42:24;;;;;;;2.67;1.87;;;10.10;99.90;;;;;;5097611;28;20789;-46
2022/10/09 00:44:56;;;;;;;8.20;1.87;;;10.10;99.90;;;;;;5097114;28;20449;-50
2022/10/09 00:47:28;;;;;;;7.80;1.37;;;10.10;99.90;;;;;;5096973;28;20485;-52
2022/10/09 00:50:01;;;;;;;3.40;1.40;;;10.00;99.90;;;;;;5104184;28;20445;-50
2022/10/09 00:52:28;;;;;;;6.83;1.80;;;10.10;99.90;;;;;;5102935;28;20480;-50
2022/10/09 00:54:56;;;;;;;6.67;1.67;;;10.00;99.90;;;;;;5097301;28;20804;-55
2022/10/09 00:57:23;;;;;;;5.70;1.70;;;10.10;99.90;;;;;;5097078;28;20449;-46
2022/10/09 00:59:50;;;;;;;3.80;1.43;;;10.10;99.90;;;;;;5096906;28;20473;-49
2022/10/09 01:02:17;;;;;;;4.10;2.23;;;10.10;99.90;;;;;;5097248;28;20776;-53
2022/10/09 01:04:44;;;;;;;4.37;2.00;;;10.10;99.90;;;;;;5097190;28;20553;-52
2022/10/09 01:07:28;;;;;;;4.10;1.57;;;10.00;99.90;;;;;;5096582;28;20464;-45
2022/10/09 01:10:00;;;;;;;4.70;1.50;;;10.00;99.90;;;;;;5117097;28;20917;-55
2022/10/09 01:12:39;;;;;;;2.00;1.33;;;10.00;99.90;;;;;;5117187;28;20777;-46
2022/10/09 01:15:13;;;;;;;2.00;1.20;;;10.00;99.90;;;;;;5116692;28;20432;-52
2022/10/09 01:17:46;;;;;;;4.20;1.40;;;10.00;99.90;;;;;;5117095;28;20828;-52
2022/10/09 01:20:35;;;;;;;2.03;1.33;;;10.00;99.90;;;;;;5117183;28;20476;-56
2022/10/09 01:23:36;;;;;;;2.73;1.33;;;9.90;99.90;;;;;;5116576;28;20436;-54
2022/10/09 01:26:15;;;;;;;1.57;1.20;;;9.90;99.90;;;;;;5092617;28;20753;-48
2022/10/09 01:28:49;;;;;;;3.50;1.47;;;9.90;99.90;;;;;;5117363;28;20444;-54
2022/10/09 01:31:18;;;;;;;4.23;1.10;;;9.90;99.90;;;;;;5117068;28;20423;-48
2022/10/09 01:33:48;;;;;;;1.53;1.10;;;9.90;99.90;;;;;;5117088;28;20495;-52
2022/10/09 01:36:18;;;;;;;2.70;1.50;;;9.90;99.90;;;;;;5117321;28;20452;-54
2022/10/09 01:38:46;;;;;;;1.53;0.90;;;9.70;99.90;;;;;;5104296;28;20465;-48
2022/10/09 01:41:13;;;;;;;2.53;1.57;;;9.90;99.90;;;;;;5096597;28;20538;-46
2022/10/09 01:43:41;;;;;;;2.57;1.63;;;9.90;99.90;;;;;;5096861;28;20473;-47
2022/10/09 01:46:20;;;;;;;9.23;1.47;;;9.90;99.90;;;;;;5099182;28;20477;-46
2022/10/09 01:48:54;;;;;;;2.90;1.60;;;9.90;99.90;;;;;;5099097;28;20436;-50
2022/10/09 01:51:28;;;;;;;2.13;1.57;;;9.90;99.90;;;;;;5099117;28;20862;-53
2022/10/09 01:53:57;;;;;;;3.97;2.00;;;9.90;99.90;;;;;;5099347;28;20799;-49
2022/10/09 01:56:31;;;;;;;2.13;1.40;;;9.80;99.90;;;;;;5100691;28;20456;-50
2022/10/09 01:59:01;;;;;;;3.00;1.30;;;9.90;99.90;;;;;;5115896;28;20460;-54
2022/10/09 02:01:32;;;;;;;7.33;1.43;;;9.80;99.90;;;;;;5098092;28;20437;-52
2022/10/09 02:04:02;;;;;;;1.20;1.10;;;9.80;99.90;;;;;;5097153;28;20442;-54
2022/10/09 02:06:31;;;;;;;3.30;1.83;;;9.80;99.90;;;;;;5096915;28;20470;-55
2022/10/09 02:08:59;;;;;;;10.13;1.87;;;9.70;99.90;;;;;;5096759;28;20989;-51
2022/10/09 02:11:30;;;;;;;7.57;1.53;;;9.70;99.90;;;;;;5109298;28;20450;-55
2022/10/09 02:13:59;;;;;;;3.93;1.20;;;9.70;99.90;;;;;;5117174;28;20460;-56
2022/10/09 02:16:39;;;;;;;5.20;1.47;;;9.80;99.90;;;;;;5117416;28;20994;-56
2022/10/09 02:19:10;;;;;;;4.73;1.03;;;9.70;99.90;;;;;;5117129;28;20460;-58
2022/10/09 02:21:41;;;;;;;2.80;1.47;;;9.70;99.90;;;;;;5117309;28;20893;-53
2022/10/09 02:24:12;;;;;;;4.13;2.10;;;9.70;99.90;;;;;;5117288;28;20438;-57
2022/10/09 02:26:39;;;;;;;2.50;1.20;;;9.70;99.90;;;;;;5116712;28;20481;-55
2022/10/09 02:29:06;;;;;;;5.50;1.73;;;9.70;99.90;;;;;;5117116;28;20444;-54
2022/10/09 02:31:40;;;;;;;3.47;1.90;;;10.20;99.90;;;;;;5116854;28;20464;-52
2022/10/09 02:34:10;;;;;;;2.33;1.40;;;9.70;99.90;;;;;;5116777;28;20464;-49
2022/10/09 02:36:38;;;;;;;3.73;1.47;;;9.70;99.90;;;;;;5116393;28;20464;-52
2022/10/09 02:39:06;;;;;;;2.27;1.40;;;9.60;99.90;;;;;;5103854;28;20479;-51
2022/10/09 02:41:35;;;;;;;1.93;1.30;;;9.60;99.90;;;;;;5096982;28;20452;-56
2022/10/09 02:44:03;;;;;;;7.77;1.90;;;9.50;99.90;;;;;;5096804;28;20901;-51
2022/10/09 02:46:30;;;;;;;2.80;1.70;;;9.60;99.90;;;;;;5113095;28;20571;-52
2022/10/09 02:48:58;;;;;;;2.33;1.20;;;9.70;99.90;;;;;;5116157;28;20545;-53
2022/10/09 02:51:26;;;;;;;1.77;1.20;;;9.50;99.90;;;;;;5116490;28;20436;-52
2022/10/09 02:53:53;;;;;;;8.27;1.57;;;9.40;99.90;;;;;;5116842;28;20477;-53
2022/10/09 02:56:20;;;;;;;2.43;1.37;;;9.40;99.90;;;;;;5122416;28;20901;-51
2022/10/09 02:58:47;;;;;;;3.77;1.83;;;9.40;99.90;;;;;;5123623;28;20468;-53
2022/10/09 03:01:15;;;;;;;11.13;1.30;;;9.40;99.90;;;;;;5104763;27;20437;-53
2022/10/09 03:03:42;;;;;;;4.13;2.00;;;9.40;99.90;;;;;;5104339;28;20485;-53
2022/10/09 03:06:11;;;;;;;4.27;1.83;;;9.40;99.90;;;;;;5104204;28;20480;-48
2022/10/09 03:08:40;;;;;;;1.83;1.40;;;9.40;99.90;;;;;;5123843;28;20902;-55
2022/10/09 03:11:07;;;;;;;1.77;1.30;;;9.30;99.90;;;;;;5124068;28;20777;-51
2022/10/09 03:13:34;;;;;;;4.50;1.40;;;9.20;99.90;;;;;;5124125;28;20476;-48
2022/10/09 03:16:04;;;;;;;4.53;2.23;;;9.30;99.90;;;;;;5117604;28;20476;-52
2022/10/09 03:18:32;;;;;;;1.10;1.00;;;9.20;99.90;;;;;;5103428;28;20465;-51
2022/10/09 03:20:59;;;;;;;3.13;1.60;;;9.20;99.90;;;;;;5103849;28;20453;-56
2022/10/09 03:23:27;;;;;;;3.70;1.40;;;9.30;99.90;;;;;;5102548;28;20936;-49
2022/10/09 03:25:57;;;;;;;1.70;1.30;;;9.30;99.90;;;;;;5103147;28;20952;-51
2022/10/09 03:28:24;;;;;;;2.40;1.03;;;9.30;99.90;;;;;;5102976;28;20489;-51
2022/10/09 03:30:54;;;;;;;2.23;1.50;;;9.30;99.90;;;;;;5108145;28;20444;-54
2022/10/09 03:33:21;;;;;;;2.83;1.20;;;9.30;99.90;;;;;;5123271;28;20877;-48
2022/10/09 03:35:49;;;;;;;6.87;1.73;;;9.30;99.90;;;;;;5123023;28;20464;-53
2022/10/09 03:38:16;;;;;;;2.23;1.10;;;9.30;99.90;;;;;;5123410;28;20475;-52
2022/10/09 03:40:45;;;;;;;2.40;1.20;;;9.30;99.90;;;;;;5122862;27;20454;-52
2022/10/09 03:43:12;;;;;;;2.27;1.73;;;9.30;99.90;;;;;;5123440;28;20444;-50
2022/10/09 03:45:39;;;;;;;3.70;1.47;;;9.30;99.90;;;;;;5123176;28;20479;-48
2022/10/09 03:48:07;;;;;;;2.10;1.30;;;9.30;99.90;;;;;;5112658;27;20498;-53
2022/10/09 03:50:34;;;;;;;2.70;1.07;;;9.30;99.90;;;;;;5103229;28;20443;-57
2022/10/09 03:53:00;;;;;;;5.90;1.93;;;9.30;99.90;;;;;;5102966;28;20483;-55
2022/10/09 03:55:27;;;;;;;3.40;2.40;;;9.20;99.90;;;;;;5102717;28;20456;-50
2022/10/09 03:57:56;;;;;;;4.50;1.40;;;9.20;99.90;;;;;;5102556;28;20477;-52
2022/10/09 04:00:23;;;;;;;1.60;1.17;;;9.20;99.90;;;;;;5102626;28;20444;-54
2022/10/09 04:02:50;;;;;;;1.67;1.00;;;9.20;99.90;;;;;;5102767;28;20465;-54
2022/10/09 04:05:18;;;;;;;3.07;1.50;;;9.10;99.90;;;;;;5102596;28;20798;-56
2022/10/09 04:07:55;;;;;;;3.20;1.20;;;9.10;99.90;;;;;;5099102;28;20437;-52
2022/10/09 04:10:22;;;;;;;3.43;1.67;;;9.10;99.90;;;;;;5099916;28;20437;-57
2022/10/09 04:12:48;;;;;;;2.93;1.60;;;9.00;99.90;;;;;;5099256;28;20499;-57
2022/10/09 04:15:21;;;;;;;2.60;1.63;;;9.00;99.90;;;;;;5099383;28;20464;-55
2022/10/09 04:17:47;;;;;;;2.67;1.47;;;9.00;99.90;;;;;;5099091;28;20957;-48
2022/10/09 04:20:19;;;;;;;3.83;1.90;;;9.00;99.90;;;;;;5111230;28;20436;-48
2022/10/09 04:22:50;;;;;;;5.97;1.20;;;9.00;99.90;;;;;;5119856;28;20457;-54
2022/10/09 04:25:20;;;;;;;5.93;2.43;;;9.00;99.90;;;;;;5119294;28;20472;-51
2022/10/09 04:27:51;;;;;;;3.47;1.33;;;8.90;99.90;;;;;;5119006;28;20444;-55
2022/10/09 04:30:22;;;;;;;1.80;1.30;;;8.90;99.90;;;;;;5120789;28;20476;-50
2022/10/09 04:32:49;;;;;;;1.60;1.20;;;8.90;99.90;;;;;;5119631;28;20784;-54
2022/10/09 04:35:16;;;;;;;6.53;1.40;;;8.90;99.90;;;;;;5119350;28;20440;-50
2022/10/09 04:37:43;;;;;;;1.40;1.10;;;8.90;99.90;;;;;;5113458;28;20488;-54
2022/10/09 04:40:14;;;;;;;3.43;1.90;;;8.80;99.90;;;;;;5098790;28;20449;-54
2022/10/09 04:42:40;;;;;;;3.87;1.50;;;8.80;99.90;;;;;;5108064;28;20433;-52
2022/10/09 04:45:08;;;;;;;3.03;1.40;;;8.80;99.90;;;;;;5118838;28;20478;-51
2022/10/09 04:47:36;;;;;;;8.30;2.40;;;8.80;99.90;;;;;;5118702;28;20452;-51
2022/10/09 04:50:04;;;;;;;9.13;2.03;;;8.80;99.90;;;;;;5118982;28;20791;-46
2022/10/09 04:52:31;;;;;;;6.33;1.60;;;8.80;99.90;;;;;;5119355;28;20508;-47
2022/10/09 04:54:58;;;;;;;3.90;1.63;;;8.80;99.90;;;;;;5119161;28;20440;-44
2022/10/09 04:57:24;;;;;;;5.10;1.77;;;8.80;99.90;;;;;;5115713;28;20472;-49
2022/10/09 04:59:51;;;;;;;5.20;1.40;;;8.80;99.90;;;;;;5099019;28;20448;-50
2022/10/09 05:02:23;;;;;;;1.30;1.20;;;8.80;99.90;;;;;;5098683;28;20770;-54
2022/10/09 05:04:51;;;;;;;3.20;1.70;;;8.80;99.90;;;;;;5099030;28;20472;-48
2022/10/09 05:07:21;;;;;;;7.10;1.50;;;8.70;99.90;;;;;;5099637;28;20873;-48
2022/10/09 05:09:48;;;;;;;2.30;1.57;;;8.80;99.90;;;;;;5098373;28;20793;-50
2022/10/09 05:12:15;;;;;;;3.00;1.77;;;8.80;99.90;;;;;;5100349;28;20442;-55
2022/10/09 05:14:41;;;;;;;2.97;1.87;;;8.90;99.90;;;;;;5120209;28;20469;-56
2022/10/09 05:17:13;;;;;;;10.43;2.70;;;8.80;99.90;;;;;;5120777;28;20778;-51
2022/10/09 05:19:40;;;;;;;2.57;1.67;;;8.80;99.90;;;;;;5119168;28;20928;-56
2022/10/09 05:22:11;;;;;;;1.70;1.50;;;8.80;99.90;;;;;;5118295;28;20784;-51
2022/10/09 05:24:38;;;;;;;5.13;1.77;;;8.70;99.90;;;;;;5118269;28;20580;-52
2022/10/09 05:27:05;;;;;;;8.50;1.63;;;8.80;99.90;;;;;;5117358;28;20536;-52
2022/10/09 05:29:36;;;;;;;5.77;2.57;;;8.70;99.90;;;;;;5097653;28;20452;-49
2022/10/09 05:32:08;;;;;;;7.13;1.63;;;8.70;99.90;;;;;;5097127;28;20441;-48
2022/10/09 05:34:35;;;;;;;3.30;1.43;;;8.70;99.90;;;;;;5097650;28;20500;-52
2022/10/09 05:37:05;;;;;;;2.60;1.87;;;8.70;99.90;;;;;;5097700;28;20461;-52
2022/10/09 05:39:34;;;;;;;4.50;1.63;;;8.70;99.90;;;;;;5098002;28;20445;-51
2022/10/09 05:42:01;;;;;;;4.30;2.00;;;8.70;99.90;;;;;;5100357;28;20469;-54
2022/10/09 05:44:31;;;;;;;3.27;1.63;;;8.70;99.90;;;;;;5097864;28;20473;-54
2022/10/09 05:46:58;;;;;;;3.57;1.97;;;8.60;99.90;;;;;;5097440;28;20453;-48
2022/10/09 05:49:25;;;;;;;4.70;1.60;;;8.70;99.90;;;;;;5104734;28;20913;-50
2022/10/09 05:51:55;;;;;;;1.87;1.70;;;8.70;99.90;;;;;;5117905;28;20444;-53
2022/10/09 05:54:22;;;;;;;4.97;1.43;;;8.60;99.90;;;;;;5116006;28;20469;-49
2022/10/09 05:56:50;;;;;;;4.00;1.60;;;8.60;99.90;;;;;;5113496;28;20473;-51
2022/10/09 05:59:23;;;;;;;2.13;1.60;;;8.60;99.90;;;;;;5095846;28;20453;-52
2022/10/09 06:01:54;;;;;;;3.37;1.83;;;8.60;99.90;;;;;;5095806;28;20430;-47
2022/10/09 06:04:23;;;;;;;5.67;2.07;;;8.60;99.90;;;;;;5095772;28;20465;-52
2022/10/09 06:06:50;;;;;;;4.40;1.87;;;8.60;99.90;;;;;;5095616;28;20875;-52
2022/10/09 06:09:20;;;;;;;5.07;2.27;;;8.60;99.90;;;;;;5095620;28;20821;-50
2022/10/09 06:11:47;;;;;;;3.17;1.87;;;8.70;99.90;;;;;;5096078;28;20530;-50
2022/10/09 06:14:16;;;;;;;5.73;2.27;;;8.70;99.90;;;;;;5096851;28;20492;-48
2022/10/09 06:16:45;;;;;;;4.03;1.77;;;8.60;99.90;;;;;;5097699;28;20465;-50
2022/10/09 06:19:13;;;;;;;4.27;1.60;;;8.60;99.90;;;;;;5098139;28;20452;-48
2022/10/09 06:21:41;;;;;;;2.10;1.60;;;8.60;99.90;;;;;;5097431;28;20433;-50
2022/10/09 06:24:08;;;;;;;3.63;1.87;;;8.60;99.90;;;;;;5097174;28;20870;-50
2022/10/09 06:26:35;;;;;;;4.47;2.23;;;8.70;99.90;;;;;;5098242;28;20779;-50
2022/10/09 06:29:05;;;;;;;3.43;1.60;;;8.70;99.90;;;;;;5097427;28;20548;-50
2022/10/09 06:31:36;;;;;;;4.00;2.40;;;8.70;99.90;;;;;;5097942;28;20441;-49
2022/10/09 06:34:03;;;;;;;3.80;2.50;;;8.70;99.90;;;;;;5099983;28;20481;-50
2022/10/09 06:36:33;;;;;;;2.10;1.90;;;8.80;99.90;;;;;;5105516;28;20487;-49
2022/10/09 06:39:02;;;;;;;3.47;2.20;;;8.80;99.90;;;;;;5105044;28;20433;-47
2022/10/09 06:41:29;;;;;;;3.30;2.37;;;8.80;99.90;;;;;;5108100;28;20429;-45
2022/10/09 06:43:57;;;;;;;4.27;2.00;;;8.80;99.90;;;;;;5106854;28;20467;-47
2022/10/09 06:46:26;;;;;;;5.47;2.90;;;8.90;99.90;;;;;;5111112;28;20483;-48
2022/10/09 06:48:54;;;;;;;3.80;2.03;;;9.00;99.90;;;;;;5110063;28;20433;-44
2022/10/09 06:51:22;;;;;;;9.80;3.03;;;9.00;99.90;;;;;;5108109;28;20444;-49
2022/10/09 06:53:51;;;;;;;4.33;2.20;;;9.00;99.90;;;;;;5110628;28;20477;-48
2022/10/09 06:56:19;;;;;;;3.07;2.30;;;9.00;99.90;;;;;;5096206;28;20800;-53
2022/10/09 06:58:46;;;;;;;6.20;3.37;;;9.10;99.90;;;;;;5096409;28;20434;-52
2022/10/09 07:01:14;;;;;;;2.40;2.03;;;9.10;99.90;;;;;;5096789;28;20456;-55
2022/10/09 07:03:44;;;;;;;4.13;2.20;;;9.20;99.90;;;;;;5096325;28;20457;-54
2022/10/09 07:06:15;;;;;;;6.47;3.00;;;9.20;99.90;;;;;;5113331;28;20444;-57
2022/10/09 07:08:44;;;;;;;6.53;3.20;;;9.30;99.90;;;;;;5105828;28;20433;-52
2022/10/09 07:11:12;;;;;;;3.40;1.80;;;9.40;99.90;;;;;;5097719;28;20922;-54
2022/10/09 07:13:40;;;;;;;6.20;2.80;;;9.40;99.90;;;;;;5112125;28;20491;-53
2022/10/09 07:16:07;;;;;;;3.73;2.20;;;9.50;99.90;;;;;;5112856;28;20789;-55
2022/10/09 07:18:35;;;;;;;5.93;3.07;;;9.60;99.90;;;;;;5107510;28;20437;-56
2022/10/09 07:21:03;;;;;;;5.50;2.40;;;9.70;99.90;;;;;;5108656;28;20462;-50
2022/10/09 07:23:32;;;;;;;2.77;1.73;;;9.80;99.90;;;;;;5096018;28;20468;-49
2022/10/09 07:25:59;;;;;;;10.20;3.30;;;9.80;99.90;;;;;;5098126;28;20458;-48
2022/10/09 07:28:28;;;;;;;5.70;2.50;;;9.90;99.90;;;;;;5112863;28;20492;-51
2022/10/09 07:30:55;;;;;;;8.30;3.10;;;10.00;99.90;;;;;;5113621;28;20472;-48
2022/10/09 07:33:22;;;;;;;3.30;2.37;;;10.10;99.90;;;;;;5114171;28;20459;-48
2022/10/09 07:35:55;;;;;;;7.50;3.30;;;10.20;99.90;;;;;;5103638;28;20442;-54
2022/10/09 07:38:23;;;;;;;4.97;2.23;;;10.40;99.90;;;;;;5093823;28;20493;-52
2022/10/09 07:40:52;;;;;;;10.60;2.40;;;10.50;99.90;;;;;;5093816;28;20559;-55
2022/10/09 07:43:19;;;;;;;5.97;2.53;;;10.50;99.90;;;;;;5097234;28;20804;-54
2022/10/09 07:45:46;;;;;;;12.70;3.73;;;10.60;99.90;;;;;;5097785;28;20437;-49
2022/10/09 07:48:13;;;;;;;9.00;2.70;;;10.70;99.90;;;;;;5097947;28;20525;-52
2022/10/09 07:50:40;;;;;;;4.13;2.43;;;10.80;99.90;;;;;;5097810;28;20456;-52
2022/10/09 07:53:07;;;;;;;7.80;2.70;;;10.90;99.90;;;;;;5097848;28;20457;-51
2022/10/09 07:55:35;;;;;;;2.70;1.70;;;11.00;99.90;;;;;;5098643;28;20539;-56
2022/10/09 07:58:03;;;;;;;7.93;2.87;;;11.00;99.90;;;;;;5117347;28;20440;-54
2022/10/09 08:00:30;;;;;;;4.70;2.40;;;11.10;99.90;;;;;;5117052;28;20460;-55
2022/10/09 08:02:57;;;;;;;10.20;2.77;;;11.20;99.90;;;;;;5118160;28;20470;-53
2022/10/09 08:05:23;;;;;;;4.40;2.40;;;11.30;99.90;;;;;;5117819;28;20440;-53
2022/10/09 08:07:50;;;;;;;8.33;3.00;;;11.40;99.90;;;;;;5117967;28;20440;-51
2022/10/09 08:10:17;;;;;;;4.50;2.20;;;11.40;99.90;;;;;;5117691;28;20563;-53
2022/10/09 08:12:44;;;;;;;2.30;2.10;;;11.60;99.90;;;;;;5098926;28;20456;-54
2022/10/09 08:15:13;;;;;;;6.43;2.73;;;11.70;99.90;;;;;;5098092;28;20568;-49
2022/10/09 08:17:42;;;;;;;3.47;2.10;;;11.80;99.90;;;;;;5100125;28;20478;-46
2022/10/09 08:20:10;;;;;;;5.40;3.00;;;11.90;99.90;;;;;;5101743;28;20449;-50
2022/10/09 08:22:36;;;;;;;6.60;2.77;;;12.00;99.90;;;;;;5100808;28;20560;-49
2022/10/09 08:25:04;;;;;;;5.67;2.37;;;12.00;99.90;;;;;;5099092;28;20437;-55
2022/10/09 08:27:30;;;;;;;6.70;2.47;;;12.10;99.90;;;;;;5099482;28;20464;-48
2022/10/09 08:29:57;;;;;;;10.20;2.30;;;12.10;99.90;;;;;;5099063;28;20465;-55
2022/10/09 08:32:25;;;;;;;5.57;3.13;;;12.20;99.90;;;;;;5116511;28;20444;-49
2022/10/09 08:34:52;;;;;;;28.17;15.10;;;12.20;99.90;;;;;;5119430;28;20965;-53
2022/10/09 08:37:19;;;;;;;6.57;3.73;;;12.30;99.90;;;;;;5119718;28;20444;-53
2022/10/09 08:39:46;;;;;;;6.17;2.77;;;12.50;99.90;;;;;;5117926;28;20441;-55
2022/10/09 08:42:26;;;;;;;9.53;3.17;;;12.70;99.90;;;;;;5111347;28;20469;-56
2022/10/09 08:44:54;;;;;;;4.53;2.10;;;13.10;99.90;;;;;;5108314;28;20446;-51
2022/10/09 08:47:24;;;;;;;3.77;2.13;;;13.90;99.90;;;;;;5115396;28;20440;-53
2022/10/09 08:49:56;;;;;;;5.70;2.30;;;15.10;99.90;;;;;;5120982;28;20429;-53
2022/10/09 08:52:33;;;;;;;2.33;2.10;;;16.50;99.90;;;;;;5099905;28;20438;-51
2022/10/09 08:55:07;;;;;;;2.83;1.83;;;18.00;99.90;;;;;;5100105;28;20476;-53
2022/10/09 08:57:34;;;;;;;6.70;2.57;;;19.40;99.90;;;;;;5101927;28;20437;-57
2022/10/09 09:00:01;;;;;;;2.33;2.13;;;21.00;99.90;;;;;;5109109;28;20602;-55
2022/10/09 09:02:40;;;;;;;2.60;2.20;;;22.20;99.90;;;;;;5112536;28;20464;-56
2022/10/09 09:05:24;;;;;;;7.10;2.10;;;23.20;99.90;;;;;;5118369;28;20452;-53
2022/10/09 09:08:01;;;;;;;4.10;2.37;;;23.60;95.50;;;;;;5120616;28;20447;-48
2022/10/09 09:10:40;;;;;;;2.30;1.90;;;23.10;94.00;;;;;;5108166;28;20804;-53
2022/10/09 09:13:22;;;;;;;5.53;1.83;;;22.10;94.80;;;;;;5096743;28;20437;-55
2022/10/09 09:15:55;;;;;;;2.80;1.67;;;21.10;97.10;;;;;;5096857;28;20469;-54
2022/10/09 09:18:34;;;;;;;2.30;1.63;;;20.20;99.80;;;;;;5096716;28;20440;-53
2022/10/09 09:21:13;;;;;;;2.70;2.00;;;19.40;99.90;;;;;;5099253;28;20441;-52
2022/10/09 09:23:44;;;;;;;2.40;1.73;;;18.90;99.90;;;;;;5096708;28;20799;-53
2022/10/09 09:26:16;;;;;;;5.40;2.13;;;19.30;99.90;;;;;;5100562;28;20774;-57
2022/10/09 09:28:43;;;;;;;4.37;2.13;;;19.70;99.90;;;;;;5095989;28;20465;-53
2022/10/09 09:31:17;;;;;;;2.37;1.87;;;19.70;99.90;;;;;;5096080;28;20852;-49
2022/10/09 09:33:51;;;;;;;3.70;2.40;;;20.00;99.90;;;;;;5096103;28;20444;-48
2022/10/09 09:36:24;;;;;;;7.53;2.63;;;20.60;99.90;;;;;;5096031;28;20468;-55
2022/10/09 09:38:52;;;;;;;4.60;2.67;;;21.60;99.90;;;;;;5111671;28;20437;-52
2022/10/09 09:41:19;;;;;;;5.17;1.90;;;22.90;99.80;;;;;;5116885;28;20468;-53
2022/10/09 09:43:46;;;;;;;2.80;2.07;;;23.80;96.50;;;;;;5117517;28;20437;-52
2022/10/09 09:46:16;;;;;;;2.83;1.97;;;24.50;92.30;;;;;;5115948;28;20459;-60
2022/10/09 09:48:47;;;;;;;4.60;2.63;;;25.20;88.80;;;;;;5106830;28;20777;-54
2022/10/09 09:51:18;;;;;;;4.30;2.13;;;25.60;83.00;;;;;;5115216;28;20464;-55
2022/10/09 09:53:49;;;;;;;5.53;1.80;;;25.70;79.10;;;;;;5116572;28;20468;-55
2022/10/09 09:56:16;;;;;;;3.57;1.80;;;25.90;77.80;;;;;;5112120;27;20468;-54
2022/10/09 09:58:46;;;;;;;5.33;3.40;;;25.80;76.80;;;;;;5115984;28;20440;-54
2022/10/09 10:01:22;;;;;;;8.83;2.03;;;25.70;75.50;;;;;;5115482;28;20455;-53
2022/10/09 10:03:50;;;;;;;5.17;1.83;;;25.60;76.90;;;;;;5105182;28;20459;-52
2022/10/09 10:06:25;;;;;;;11.27;2.60;;;25.60;76.90;;;;;;5115152;28;20777;-56
2022/10/09 10:09:01;;;;;;;2.73;1.43;;;25.50;76.00;;;;;;5098407;27;20441;-50
2022/10/09 10:11:29;;;;;;;6.03;1.83;;;25.40;74.70;;;;;;5104099;28;20475;-48
2022/10/09 10:13:57;;;;;;;6.10;1.77;;;25.50;76.10;;;;;;5098794;28;20511;-54
2022/10/09 10:16:26;;;;;;;5.97;1.90;;;25.40;75.20;;;;;;5095535;28;20496;-53
2022/10/09 10:18:54;;;;;;;5.03;1.57;;;25.20;74.50;;;;;;5098987;28;20441;-49
2022/10/09 10:21:22;;;;;;;2.80;1.80;;;24.90;73.30;;;;;;5095749;28;20938;-52
2022/10/09 10:23:53;;;;;;;3.40;1.83;;;24.80;75.80;;;;;;5095469;28;20445;-55
2022/10/09 10:26:29;;;;;;;8.33;1.77;;;24.70;74.10;;;;;;5095494;28;20494;-48
2022/10/09 10:29:01;;;;;;;2.40;1.37;;;24.40;74.60;;;;;;5095714;28;20432;-48
2022/10/09 10:31:48;;;;;;;1.50;1.10;;;24.30;75.20;;;;;;5097215;28;20794;-51
2022/10/09 10:34:20;;;;;;;2.17;1.10;;;24.20;75.40;;;;;;5107396;28;20762;-50
2022/10/09 10:36:49;;;;;;;5.83;2.10;;;24.00;75.40;;;;;;5101264;28;20512;-43
2022/10/09 10:39:23;;;;;;;5.00;1.90;;;23.80;76.40;;;;;;5101753;28;20459;-51
2022/10/09 10:41:54;;;;;;;6.90;2.50;;;23.80;77.70;;;;;;5115382;28;20892;-51
2022/10/09 10:44:26;;;;;;;5.70;2.03;;;23.60;76.40;;;;;;5111602;28;20439;-51
2022/10/09 10:46:59;;;;;;;4.70;1.33;;;23.30;76.10;;;;;;5107751;28;20927;-54
2022/10/09 10:49:26;;;;;;;6.27;2.43;;;23.10;78.70;;;;;;5096318;28;20960;-51
2022/10/09 10:52:07;;;;;;;6.07;1.50;;;23.00;79.40;;;;;;5095356;28;20943;-52
2022/10/09 10:54:38;;;;;;;4.93;1.93;;;22.80;78.10;;;;;;5100303;28;20432;-46
2022/10/09 10:57:13;;;;;;;7.90;1.83;;;22.50;79.70;;;;;;5095622;28;20436;-53
2022/10/09 10:59:47;;;;;;;2.30;1.40;;;22.10;80.80;;;;;;5095729;28;20439;-50
2022/10/09 11:02:58;;;;;;;9.93;1.80;;;21.50;81.00;;;;;;5113649;28;20437;-52
2022/10/09 11:05:32;;;;;;;3.83;1.10;;;21.00;84.40;;;;;;5116174;28;20421;-48
2022/10/09 11:08:11;;;;;;;7.73;1.40;;;20.60;83.40;;;;;;5094569;28;20592;-54
2022/10/09 11:10:55;;;;;;;6.23;2.60;;;20.20;87.00;;;;;;5096868;28;20422;-52
2022/10/09 11:13:31;;;;;;;2.13;1.10;;;19.90;90.00;;;;;;5115256;28;20456;-54
2022/10/09 11:16:06;;;;;;;3.20;0.97;;;19.70;90.30;;;;;;5116320;28;20803;-53
2022/10/09 11:18:49;;;;;;;13.73;8.10;;;19.30;91.10;;;;;;5114374;28;20456;-55
2022/10/09 11:21:35;;;;;;;2.80;1.30;;;18.90;93.30;;;;;;5119546;28;20432;-55
2022/10/09 11:24:19;;;;;;;9.33;6.30;;;18.50;95.90;;;;;;5100301;28;20960;-53
2022/10/09 11:26:57;;;;;;;6.03;2.13;;;18.20;98.50;;;;;;5105387;28;20445;-54
2022/10/09 11:29:31;;;;;;;6.57;1.57;;;17.90;99.90;;;;;;5099687;28;20480;-53
2022/10/09 11:32:02;;;;;;;4.27;1.53;;;17.90;99.60;;;;;;5099604;28;20444;-51
2022/10/09 11:34:35;;;;;;;1.63;1.23;;;18.00;99.90;;;;;;5099179;28;20481;-52
2022/10/09 11:37:06;;;;;;;4.80;1.63;;;17.90;99.20;;;;;;5099737;28;20480;-54
2022/10/09 11:39:33;;;;;;;3.13;1.20;;;17.90;99.90;;;;;;5099395;28;20460;-49
2022/10/09 11:42:01;;;;;;;3.43;1.70;;;17.90;99.90;;;;;;5099814;28;20469;-48
2022/10/09 11:44:44;;;;;;;3.43;1.30;;;17.80;99.90;;;;;;5099338;28;20469;-51
2022/10/09 11:47:19;;;;;;;3.43;1.50;;;17.90;99.90;;;;;;5099285;28;20817;-53
2022/10/09 11:50:04;;;;;;;3.40;2.07;;;17.80;99.90;;;;;;5099573;28;20491;-52
2022/10/09 11:52:42;;;;;;;2.53;1.40;;;17.70;99.90;;;;;;5100025;28;20437;-48
2022/10/09 11:55:17;;;;;;;2.70;1.23;;;17.60;99.90;;;;;;5099536;28;20987;-51
2022/10/09 11:57:44;;;;;;;2.13;1.10;;;17.70;99.90;;;;;;5099309;28;20448;-48
2022/10/09 12:00:13;;;;;;;2.97;1.07;;;17.80;99.90;;;;;;5099358;28;20469;-54
2022/10/09 12:02:41;;;;;;;5.73;2.13;;;17.80;99.90;;;;;;5099110;28;20439;-49
2022/10/09 12:05:35;;;;;;;3.93;1.20;;;17.80;99.90;;;;;;5099141;28;20465;-49
2022/10/09 12:08:11;;;;;;;3.13;1.40;;;17.70;99.90;;;;;;5099339;28;20436;-50
2022/10/09 12:10:42;;;;;;;6.90;1.60;;;17.80;99.90;;;;;;5099122;28;20429;-52
2022/10/09 12:13:40;;;;;;;2.47;1.73;;;17.70;99.90;;;;;;5099546;28;20451;-54
2022/10/09 12:16:11;;;;;;;3.43;1.23;;;17.50;99.90;;;;;;5099519;28;20457;-53
2022/10/09 12:18:40;;;;;;;4.40;1.50;;;17.50;99.90;;;;;;5099321;28;20422;-57
2022/10/09 12:21:08;;;;;;;4.17;1.70;;;17.40;99.90;;;;;;5099330;28;20456;-55
2022/10/09 12:23:39;;;;;;;3.63;2.30;;;17.60;99.90;;;;;;5099559;28;20460;-52
2022/10/09 12:26:10;;;;;;;7.13;1.63;;;17.50;99.90;;;;;;5099487;28;20432;-50
2022/10/09 12:28:43;;;;;;;6.20;1.20;;;17.50;99.90;;;;;;5098516;28;20502;-52
2022/10/09 12:31:18;;;;;;;4.43;2.90;;;17.60;99.90;;;;;;5099538;28;20439;-55
2022/10/09 12:33:49;;;;;;;1.83;1.37;;;17.70;99.90;;;;;;5099672;28;20440;-48
2022/10/09 12:36:23;;;;;;;3.30;1.50;;;17.60;99.90;;;;;;5099172;28;20470;-45
2022/10/09 12:38:50;;;;;;;3.70;1.57;;;17.50;99.90;;;;;;5099040;28;20437;-49
2022/10/09 12:41:20;;;;;;;3.77;1.33;;;17.70;99.90;;;;;;5098837;28;20452;-52
2022/10/09 12:43:49;;;;;;;8.77;1.80;;;17.70;99.90;;;;;;5099098;28;20429;-51
2022/10/09 12:46:28;;;;;;;4.60;1.40;;;17.70;99.90;;;;;;5098157;28;20949;-53
2022/10/09 12:48:55;;;;;;;3.43;1.20;;;17.70;99.90;;;;;;5098705;28;20440;-53
2022/10/09 12:51:25;;;;;;;2.23;0.87;;;17.70;99.90;;;;;;5098655;28;20769;-49
2022/10/09 12:53:53;;;;;;;1.80;1.03;;;17.80;99.90;;;;;;5098516;28;20473;-50
2022/10/09 12:56:24;;;;;;;4.77;1.20;;;17.60;99.90;;;;;;5099235;28;20489;-50
2022/10/09 12:58:52;;;;;;;3.20;1.27;;;17.60;99.90;;;;;;5098886;28;20438;-53
2022/10/09 13:01:20;;;;;;;8.77;1.50;;;17.70;99.90;;;;;;5098509;28;20461;-49
2022/10/09 13:03:56;;;;;;;4.50;1.63;;;17.80;99.90;;;;;;5098696;28;20873;-51
2022/10/09 13:06:26;;;;;;;4.40;1.43;;;17.90;99.90;;;;;;5098744;28;20561;-49